createdAt,value
2022-12-02T00:02:33.725Z,97177.56
2022-12-02T00:05:05.226Z,97179.38
2022-12-02T00:07:34.113Z,97171.38
2022-12-02T00:10:00.948Z,97170.38
2022-12-02T00:12:31.946Z,97177.28
2022-12-02T00:15:22.640Z,97175.00
2022-12-02T00:17:49.377Z,97165.22
2022-12-02T00:20:16.049Z,97161.09
2022-12-02T00:22:42.721Z,97173.19
2022-12-02T00:25:09.561Z,97161.34
2022-12-02T00:27:36.198Z,97165.22
2022-12-02T00:30:03.089Z,97160.59
2022-12-02T00:32:29.714Z,97162.16
2022-12-02T00:34:56.417Z,97160.59
2022-12-02T00:37:23.143Z,97156.25
2022-12-02T00:39:49.853Z,97148.00
2022-12-02T00:42:16.533Z,97154.97
2022-12-02T00:45:02.963Z,97156.47
2022-12-02T00:47:29.610Z,97145.97
2022-12-02T00:49:56.351Z,97145.94
2022-12-02T00:52:23.066Z,97149.06
2022-12-02T00:54:50.060Z,97140.56
2022-12-02T00:57:17.308Z,97143.91
2022-12-02T00:59:44.041Z,97139.81
2022-12-02T01:02:10.787Z,97133.63
2022-12-02T01:04:37.490Z,97124.38
2022-12-02T01:07:04.196Z,97131.31
2022-12-02T01:09:30.950Z,97128.22
2022-12-02T01:11:57.786Z,97128.22
2022-12-02T01:14:24.703Z,97130.53
2022-12-02T01:16:51.490Z,97123.31
2022-12-02T01:19:18.407Z,97122.31
2022-12-02T01:21:45.133Z,97120.00
2022-12-02T01:24:11.941Z,97126.41
2022-12-02T01:26:38.778Z,97127.44
2022-12-02T01:29:07.922Z,97128.47
2022-12-02T01:31:34.877Z,97132.06
2022-12-02T01:34:01.656Z,97124.38
2022-12-02T01:36:28.340Z,97122.03
2022-12-02T01:38:55.110Z,97124.59
2022-12-02T01:41:22.396Z,97123.59
2022-12-02T01:43:49.724Z,97128.72
2022-12-02T01:46:17.545Z,97117.69
2022-12-02T01:48:44.417Z,97121.28
2022-12-02T01:51:11.288Z,97122.81
2022-12-02T01:53:39.565Z,97122.03
2022-12-02T01:56:06.706Z,97121.03
2022-12-02T01:58:33.469Z,97120.00
2022-12-02T02:01:00.371Z,97123.84
2022-12-02T02:03:27.312Z,97117.66
2022-12-02T02:05:54.770Z,97125.91
2022-12-02T02:08:22.470Z,97128.72
2022-12-02T02:10:49.578Z,97113.03
2022-12-02T02:13:17.724Z,97115.88
2022-12-02T02:15:45.800Z,97117.16
2022-12-02T02:18:13.089Z,97124.38
2022-12-02T02:20:42.008Z,97119.22
2022-12-02T02:23:08.937Z,97120.03
2022-12-02T02:25:43.440Z,97118.72
2022-12-02T02:28:11.004Z,97114.84
2022-12-02T02:30:39.109Z,97103.81
2022-12-02T02:33:08.030Z,97099.97
2022-12-02T02:35:37.123Z,97096.88
2022-12-02T02:38:06.400Z,97096.59
2022-12-02T02:40:33.801Z,97089.91
2022-12-02T02:43:02.975Z,97099.19
2022-12-02T02:45:36.382Z,97097.38
2022-12-02T02:48:08.316Z,97095.06
2022-12-02T02:50:38.387Z,97099.19
2022-12-02T02:53:06.566Z,97097.63
2022-12-02T02:55:34.767Z,97089.66
2022-12-02T02:58:14.591Z,97079.38
2022-12-02T03:00:47.518Z,97095.56
2022-12-02T03:03:18.107Z,97081.19
2022-12-02T03:05:45.845Z,97084.00
2022-12-02T03:08:13.005Z,97088.91
2022-12-02T03:10:40.707Z,97089.97
2022-12-02T03:13:08.235Z,97087.41
2022-12-02T03:15:35.169Z,97086.88
2022-12-02T03:18:02.290Z,97098.44
2022-12-02T03:20:29.162Z,97086.88
2022-12-02T03:22:55.962Z,97090.97
2022-12-02T03:25:22.765Z,97091.47
2022-12-02T03:27:49.831Z,97081.97
2022-12-02T03:30:18.499Z,97076.84
2022-12-02T03:32:46.044Z,97084.00
2022-12-02T03:35:13.241Z,97080.19
2022-12-02T03:37:40.245Z,97081.72
2022-12-02T03:40:08.127Z,97072.75
2022-12-02T03:42:35.008Z,97070.69
2022-12-02T03:45:01.947Z,97061.41
2022-12-02T03:47:29.693Z,97055.22
2022-12-02T03:49:57.729Z,97063.19
2022-12-02T03:52:24.997Z,97054.97
2022-12-02T03:54:55.112Z,97058.06
2022-12-02T03:57:22.697Z,97054.22
2022-12-02T03:59:49.645Z,97043.41
2022-12-02T04:02:16.721Z,97046.00
2022-12-02T04:04:43.592Z,97047.25
2022-12-02T04:07:10.332Z,97046.22
2022-12-02T04:09:37.060Z,97032.63
2022-12-02T04:12:03.905Z,97031.31
2022-12-02T04:14:30.551Z,97020.00
2022-12-02T04:16:57.302Z,97018.72
2022-12-02T04:19:24.604Z,97015.66
2022-12-02T04:21:51.458Z,97023.38
2022-12-02T04:24:18.198Z,97015.44
2022-12-02T04:26:45.008Z,97019.78
2022-12-02T04:29:11.689Z,97012.34
2022-12-02T04:31:38.542Z,97004.88
2022-12-02T04:34:05.396Z,97010.03
2022-12-02T04:36:32.309Z,97009.28
2022-12-02T04:38:59.099Z,97003.88
2022-12-02T04:41:25.964Z,96996.19
2022-12-02T04:43:52.695Z,97002.41
2022-12-02T04:46:19.439Z,97002.19
2022-12-02T04:48:46.160Z,96996.72
2022-12-02T04:51:12.952Z,96994.66
2022-12-02T04:53:39.931Z,96990.84
2022-12-02T04:56:06.826Z,96987.28
2022-12-02T04:58:34.976Z,96990.09
2022-12-02T05:01:01.755Z,96980.03
2022-12-02T05:03:29.057Z,96989.88
2022-12-02T05:05:55.671Z,96981.88
2022-12-02T05:08:22.433Z,96975.63
2022-12-02T05:10:49.220Z,96975.63
2022-12-02T05:13:15.932Z,96983.91
2022-12-02T05:15:42.717Z,96982.38
2022-12-02T05:18:09.446Z,96968.97
2022-12-02T05:20:36.201Z,96973.91
2022-12-02T05:23:05.707Z,96975.13
2022-12-02T05:25:32.936Z,96961.53
2022-12-02T05:27:59.603Z,96973.41
2022-12-02T05:30:26.465Z,96968.78
2022-12-02T05:32:53.149Z,96968.78
2022-12-02T05:35:19.961Z,96976.25
2022-12-02T05:37:46.710Z,96970.63
2022-12-02T05:40:14.472Z,96970.38
2022-12-02T05:42:41.865Z,96972.66
2022-12-02T05:45:26.692Z,96970.09
2022-12-02T05:47:55.076Z,96966.25
2022-12-02T05:50:22.980Z,96964.72
2022-12-02T05:52:55.208Z,96972.16
2022-12-02T05:55:22.354Z,96964.97
2022-12-02T05:57:50.005Z,96968.56
2022-12-02T06:00:23.861Z,96959.81
2022-12-02T06:02:54.123Z,96958.28
2022-12-02T06:05:26.237Z,96960.88
2022-12-02T06:07:59.904Z,96963.94
2022-12-02T06:10:30.163Z,96964.97
2022-12-02T06:13:16.337Z,96960.09
2022-12-02T06:15:43.227Z,96967.53
2022-12-02T06:18:17.529Z,96952.91
2022-12-02T06:20:46.942Z,96960.69
2022-12-02T06:23:19.624Z,96954.78
2022-12-02T06:25:47.251Z,96955.81
2022-12-02T06:28:26.659Z,96960.19
2022-12-02T06:31:09.493Z,96961.97
2022-12-02T06:33:37.933Z,96963.00
2022-12-02T06:36:10.412Z,96961.19
2022-12-02T06:38:44.142Z,96961.44
2022-12-02T06:41:17.011Z,96958.91
2022-12-02T06:44:03.607Z,96962.25
2022-12-02T06:46:32.515Z,96956.84
2022-12-02T06:48:59.305Z,96961.97
2022-12-02T06:51:26.033Z,96963.28
2022-12-02T06:53:52.810Z,96958.63
2022-12-02T06:56:19.661Z,96961.47
2022-12-02T06:58:47.599Z,96964.81
2022-12-02T07:01:25.702Z,96963.53
2022-12-02T07:04:14.293Z,96964.53
2022-12-02T07:06:46.259Z,96969.41
2022-12-02T07:09:18.677Z,96972.28
2022-12-02T07:11:53.581Z,96968.16
2022-12-02T07:14:28.038Z,96971.50
2022-12-02T07:17:22.082Z,96963.28
2022-12-02T07:20:11.414Z,96968.44
2022-12-02T07:22:44.302Z,96970.50
2022-12-02T07:25:10.977Z,96964.38
2022-12-02T07:27:41.354Z,96967.22
2022-12-02T07:30:39.530Z,96968.50
2022-12-02T07:33:06.344Z,96967.44
2022-12-02T07:35:33.306Z,96966.13
2022-12-02T07:38:00.068Z,96965.63
2022-12-02T07:40:28.322Z,96963.84
2022-12-02T07:42:55.096Z,96961.28
2022-12-02T07:45:21.958Z,96956.44
2022-12-02T07:47:50.217Z,96957.72
2022-12-02T07:50:17.853Z,96956.66
2022-12-02T07:52:44.654Z,96960.78
2022-12-02T07:55:11.362Z,96958.69
2022-12-02T07:57:39.322Z,96963.84
2022-12-02T08:00:07.998Z,96965.66
2022-12-02T08:02:40.743Z,96967.97
2022-12-02T08:05:08.232Z,96972.03
2022-12-02T08:07:34.973Z,96974.91
2022-12-02T08:10:01.754Z,96971.56
2022-12-02T08:12:28.572Z,96971.34
2022-12-02T08:14:55.266Z,96972.84
2022-12-02T08:17:21.993Z,96954.66
2022-12-02T08:19:48.784Z,96962.59
2022-12-02T08:22:15.557Z,96962.88
2022-12-02T08:24:42.458Z,96964.91
2022-12-02T08:27:09.420Z,96962.59
2022-12-02T08:29:36.045Z,96962.34
2022-12-02T08:32:03.402Z,96962.59
2022-12-02T08:34:30.169Z,96967.22
2022-12-02T08:36:56.877Z,96964.66
2022-12-02T08:39:23.637Z,96962.09
2022-12-02T08:41:50.466Z,96967.22
2022-12-02T08:44:17.292Z,96956.22
2022-12-02T08:46:45.420Z,96964.38
2022-12-02T08:49:15.085Z,96956.97
2022-12-02T08:51:41.918Z,96960.81
2022-12-02T08:54:08.679Z,96972.59
2022-12-02T08:56:35.568Z,96964.13
2022-12-02T08:59:02.679Z,96963.91
2022-12-02T09:01:29.810Z,96968.50
2022-12-02T09:03:56.526Z,96968.78
2022-12-02T09:06:23.758Z,96958.00
2022-12-02T09:08:50.673Z,96963.88
2022-12-02T09:11:17.709Z,96970.53
2022-12-02T09:13:45.306Z,96962.88
2022-12-02T09:16:12.065Z,96964.41
2022-12-02T09:18:38.762Z,96956.72
2022-12-02T09:21:05.751Z,96955.16
2022-12-02T09:23:32.492Z,96965.16
2022-12-02T09:25:59.240Z,97004.91
2022-12-02T09:28:25.990Z,96967.50
2022-12-02T09:30:53.258Z,96990.84
2022-12-02T09:33:20.017Z,96989.28
2022-12-02T09:35:46.857Z,96988.00
2022-12-02T09:38:13.849Z,96995.69
2022-12-02T09:40:42.629Z,96996.19
2022-12-02T09:43:09.891Z,96994.38
2022-12-02T09:45:36.786Z,96989.81
2022-12-02T09:48:03.827Z,96996.69
2022-12-02T09:50:30.815Z,96997.97
2022-12-02T09:53:04.384Z,96999.22
2022-12-02T09:55:31.495Z,96990.28
2022-12-02T09:58:14.580Z,96999.47
2022-12-02T10:00:41.443Z,96996.41
2022-12-02T10:03:12.602Z,97004.38
2022-12-02T10:05:44.811Z,97003.31
2022-12-02T10:08:17.577Z,97005.88
2022-12-02T10:10:45.629Z,97005.66
2022-12-02T10:13:19.318Z,97000.50
2022-12-02T10:15:46.379Z,97004.84
2022-12-02T10:18:19.496Z,97006.13
2022-12-02T10:20:47.184Z,97007.91
2022-12-02T10:23:15.785Z,97004.56
2022-12-02T10:25:48.707Z,97005.84
2022-12-02T10:28:35.289Z,97005.09
2022-12-02T10:31:08.286Z,97007.66
2022-12-02T10:33:38.484Z,97009.19
2022-12-02T10:36:06.173Z,96999.97
2022-12-02T10:38:38.234Z,97000.47
2022-12-02T10:41:15.346Z,96990.75
2022-12-02T10:44:01.783Z,96997.91
2022-12-02T10:46:28.848Z,96999.91
2022-12-02T10:48:55.553Z,96995.28
2022-12-02T10:51:22.520Z,96991.72
2022-12-02T10:53:51.929Z,96995.84
2022-12-02T10:56:26.215Z,96995.56
2022-12-02T10:58:55.608Z,96988.88
2022-12-02T11:01:22.455Z,96988.09
2022-12-02T11:03:49.689Z,96985.56
2022-12-02T11:06:20.630Z,96974.53
2022-12-02T11:08:50.499Z,96973.50
2022-12-02T11:11:38.850Z,96972.25
2022-12-02T11:14:10.072Z,96969.69
2022-12-02T11:16:36.969Z,96982.75
2022-12-02T11:19:04.353Z,96974.31
2022-12-02T11:21:31.136Z,96975.31
2022-12-02T11:24:23.238Z,96967.38
2022-12-02T11:27:02.213Z,96965.84
2022-12-02T11:29:43.456Z,96970.44
2022-12-02T11:32:26.623Z,96953.56
2022-12-02T11:37:45.895Z,96962.00
2022-12-02T11:40:14.382Z,96962.53
2022-12-02T11:42:43.298Z,96949.22
2022-12-02T11:45:44.905Z,96955.88
2022-12-02T11:48:16.296Z,96956.16
2022-12-02T11:50:43.739Z,96954.38
2022-12-02T11:53:18.794Z,96954.06
2022-12-02T11:55:52.928Z,96948.16
2022-12-02T11:58:22.651Z,96948.13
2022-12-02T12:01:18.869Z,96943.78
2022-12-02T12:03:51.629Z,96941.22
2022-12-02T12:06:24.312Z,96944.31
2022-12-02T12:08:56.925Z,96943.53
2022-12-02T12:11:25.290Z,96933.03
2022-12-02T12:14:02.351Z,96925.66
2022-12-02T12:16:34.271Z,96918.22
2022-12-02T12:19:21.245Z,96917.69
2022-12-02T12:21:52.595Z,96915.63
2022-12-02T12:24:23.315Z,96915.41
2022-12-02T12:26:51.322Z,96916.91
2022-12-02T12:29:19.707Z,96914.91
2022-12-02T12:31:46.508Z,96909.03
2022-12-02T12:34:16.615Z,96901.34
2022-12-02T12:36:45.764Z,96897.50
2022-12-02T12:39:13.768Z,96895.97
2022-12-02T12:44:30.576Z,96890.31
2022-12-02T12:47:03.434Z,96896.47
2022-12-02T12:49:31.152Z,96892.63
2022-12-02T12:51:58.081Z,96889.31
2022-12-02T12:54:24.722Z,96886.47
2022-12-02T12:56:51.472Z,96883.91
2022-12-02T12:59:18.194Z,96880.34
2022-12-02T13:01:45.190Z,96881.59
2022-12-02T13:04:12.517Z,96885.19
2022-12-02T13:06:42.976Z,96881.88
2022-12-02T13:09:11.388Z,96879.84
2022-12-02T13:11:38.162Z,96882.66
2022-12-02T13:14:05.022Z,96881.38
2022-12-02T13:16:32.635Z,96885.19
2022-12-02T13:18:59.462Z,96881.88
2022-12-02T13:21:26.464Z,96880.59
2022-12-02T13:23:53.237Z,96871.88
2022-12-02T13:26:20.154Z,96873.44
2022-12-02T13:28:47.142Z,96881.88
2022-12-02T13:31:14.063Z,96879.59
2022-12-02T13:33:40.941Z,96875.72
2022-12-02T13:36:08.324Z,96873.19
2022-12-02T13:38:35.130Z,96876.25
2022-12-02T13:41:01.938Z,96876.53
2022-12-02T13:43:28.665Z,96872.16
2022-12-02T13:45:55.461Z,96879.34
2022-12-02T13:48:22.205Z,96880.84
2022-12-02T13:50:48.960Z,96888.78
2022-12-02T13:53:15.631Z,96895.97
2022-12-02T13:55:42.320Z,96891.34
2022-12-02T13:58:09.057Z,96891.09
2022-12-02T14:00:35.861Z,96898.25
2022-12-02T14:03:02.581Z,96887.25
2022-12-02T14:05:29.503Z,96887.75
2022-12-02T14:07:56.270Z,96893.63
2022-12-02T14:10:23.081Z,96889.53
2022-12-02T14:12:49.899Z,96889.78
2022-12-02T14:15:16.706Z,96891.06
2022-12-02T14:17:43.461Z,96889.25
2022-12-02T14:20:10.756Z,96886.72
2022-12-02T14:22:37.554Z,96890.53
2022-12-02T14:25:04.501Z,96883.91
2022-12-02T14:27:31.388Z,96880.59
2022-12-02T14:29:58.255Z,96885.19
2022-12-02T14:32:25.391Z,96879.28
2022-12-02T14:34:52.602Z,96885.19
2022-12-02T14:37:19.854Z,96887.50
2022-12-02T14:39:46.720Z,96891.34
2022-12-02T14:42:13.528Z,96878.78
2022-12-02T14:44:40.270Z,96891.06
2022-12-02T14:47:06.940Z,96871.34
2022-12-02T14:49:41.927Z,96880.81
2022-12-02T14:52:09.180Z,96869.28
2022-12-02T14:54:36.128Z,96881.59
2022-12-02T14:57:04.062Z,96872.88
2022-12-02T14:59:31.489Z,96883.88
2022-12-02T15:01:58.719Z,96883.88
2022-12-02T15:04:28.931Z,96874.16
2022-12-02T15:06:56.121Z,96884.66
2022-12-02T15:09:23.100Z,96883.63
2022-12-02T15:11:50.808Z,96884.13
2022-12-02T15:14:18.253Z,96886.97
2022-12-02T15:16:45.015Z,96894.13
2022-12-02T15:19:11.822Z,96903.34
2022-12-02T15:21:38.496Z,96900.00
2022-12-02T15:24:05.646Z,96893.88
2022-12-02T15:26:32.479Z,96905.63
2022-12-02T15:28:59.474Z,96896.66
2022-12-02T15:31:26.427Z,96898.97
2022-12-02T15:33:53.250Z,96896.16
2022-12-02T15:36:20.070Z,96898.94
2022-12-02T15:38:46.921Z,96902.00
2022-12-02T15:41:13.654Z,96902.78
2022-12-02T15:43:40.461Z,96901.75
2022-12-02T15:46:07.159Z,96900.72
2022-12-02T15:48:33.957Z,96904.53
2022-12-02T15:51:00.765Z,96898.63
2022-12-02T15:53:27.419Z,96902.75
2022-12-02T15:55:54.211Z,96894.81
2022-12-02T15:58:20.920Z,96897.09
2022-12-02T16:00:47.711Z,96901.19
2022-12-02T16:03:14.540Z,96897.84
2022-12-02T16:05:41.258Z,96890.97
2022-12-02T16:08:08.441Z,96899.13
2022-12-02T16:10:35.904Z,96897.59
2022-12-02T16:13:02.657Z,96894.00
2022-12-02T16:15:29.431Z,96887.91
2022-12-02T16:17:56.241Z,96898.38
2022-12-02T16:20:23.116Z,96883.00
2022-12-02T16:22:49.901Z,96894.00
2022-12-02T16:25:16.996Z,96884.56
2022-12-02T16:27:43.757Z,96892.75
2022-12-02T16:30:11.278Z,96884.56
2022-12-02T16:32:37.913Z,96891.44
2022-12-02T16:35:05.004Z,96906.84
2022-12-02T16:37:31.782Z,96893.50
2022-12-02T16:39:58.507Z,96889.69
2022-12-02T16:42:25.257Z,96903.25
2022-12-02T16:44:55.697Z,96898.38
2022-12-02T16:47:23.694Z,96902.47
2022-12-02T16:49:51.036Z,96898.91
2022-12-02T16:52:17.987Z,96912.19
2022-12-02T16:54:44.915Z,96905.28
2022-12-02T16:57:11.816Z,96911.44
2022-12-02T16:59:38.710Z,96900.66
2022-12-02T17:02:06.070Z,96914.75
2022-12-02T17:04:32.998Z,96912.94
2022-12-02T17:06:59.738Z,96915.50
2022-12-02T17:09:26.413Z,96912.19
2022-12-02T17:11:53.262Z,96918.06
2022-12-02T17:14:20.091Z,96918.06
2022-12-02T17:16:46.905Z,96925.75
2022-12-02T17:19:13.824Z,96921.66
2022-12-02T17:21:40.649Z,96921.66
2022-12-02T17:24:08.663Z,96915.50
2022-12-02T17:26:35.382Z,96920.63
2022-12-02T17:29:02.162Z,96931.63
2022-12-02T17:31:28.961Z,96930.88
2022-12-02T17:33:55.790Z,96936.75
2022-12-02T17:36:22.552Z,96939.06
2022-12-02T17:38:56.251Z,96943.16
2022-12-02T17:41:24.856Z,96947.75
2022-12-02T17:43:51.671Z,96948.00
2022-12-02T17:46:19.098Z,96960.31
2022-12-02T17:48:46.056Z,96952.09
2022-12-02T17:51:13.600Z,96959.00
2022-12-02T17:53:40.812Z,96954.91
2022-12-02T17:56:08.244Z,96951.34
2022-12-02T17:58:35.704Z,96957.22
2022-12-02T18:01:07.711Z,96963.84
2022-12-02T18:03:38.882Z,96964.63
2022-12-02T18:06:06.488Z,96966.16
2022-12-02T18:08:33.774Z,96971.81
2022-12-02T18:11:00.723Z,96976.38
2022-12-02T18:13:27.751Z,96978.19
2022-12-02T18:15:54.521Z,96978.16
2022-12-02T18:18:21.739Z,96985.06
2022-12-02T18:20:48.610Z,96976.34
2022-12-02T18:23:16.377Z,96988.59
2022-12-02T18:25:43.168Z,96982.97
2022-12-02T18:28:09.883Z,96987.06
2022-12-02T18:30:36.731Z,96978.09
2022-12-02T18:33:03.494Z,96980.13
2022-12-02T18:35:30.196Z,96977.03
2022-12-02T18:37:57.035Z,96974.22
2022-12-02T18:40:23.846Z,96969.88
2022-12-02T18:42:50.597Z,96965.28
2022-12-02T18:45:17.666Z,96963.97
2022-12-02T18:47:44.419Z,96970.13
2022-12-02T18:50:11.932Z,96957.31
2022-12-02T18:52:38.820Z,96955.50
2022-12-02T18:55:06.892Z,96955.50
2022-12-02T18:57:34.005Z,96961.16
2022-12-02T19:00:00.678Z,96959.63
2022-12-02T19:02:27.510Z,96955.00
2022-12-02T19:04:54.638Z,96947.81
2022-12-02T19:07:21.621Z,96949.13
2022-12-02T19:09:53.251Z,96943.75
2022-12-02T19:12:21.475Z,96945.75
2022-12-02T19:14:48.464Z,96944.50
2022-12-02T19:17:15.592Z,96944.50
2022-12-02T19:19:43.039Z,96951.41
2022-12-02T19:22:10.550Z,96941.69
2022-12-02T19:24:37.345Z,96955.50
2022-12-02T19:27:04.864Z,96945.75
2022-12-02T19:29:32.010Z,96943.47
2022-12-02T19:31:59.032Z,96940.91
2022-12-02T19:34:26.017Z,96943.97
2022-12-02T19:36:53.037Z,96944.19
2022-12-02T19:39:20.028Z,96939.84
2022-12-02T19:41:46.975Z,96940.38
2022-12-02T19:44:14.079Z,96940.09
2022-12-02T19:46:41.008Z,96939.06
2022-12-02T19:49:07.893Z,96929.84
2022-12-02T19:51:34.653Z,96936.50
2022-12-02T19:54:01.338Z,96932.66
2022-12-02T19:56:28.199Z,96937.50
2022-12-02T19:58:54.959Z,96929.06
2022-12-02T20:01:21.720Z,96934.19
2022-12-02T20:03:48.440Z,96919.63
2022-12-02T20:06:15.442Z,96923.44
2022-12-02T20:08:42.195Z,96923.69
2022-12-02T20:11:09.007Z,96911.13
2022-12-02T20:13:35.803Z,96906.28
2022-12-02T20:16:02.969Z,96905.00
2022-12-02T20:18:29.776Z,96914.72
2022-12-02T20:20:56.655Z,96914.44
2022-12-02T20:23:23.537Z,96906.47
2022-12-02T20:25:50.362Z,96908.28
2022-12-02T20:28:17.101Z,96914.94
2022-12-02T20:30:44.019Z,96912.88
2022-12-02T20:33:11.207Z,96919.56
2022-12-02T20:35:38.101Z,96913.91
2022-12-02T20:38:04.934Z,96917.78
2022-12-02T20:40:31.967Z,96920.31
2022-12-02T20:42:58.691Z,96909.84
2022-12-02T20:45:26.669Z,96918.00
2022-12-02T20:47:53.517Z,96910.34
2022-12-02T20:50:20.285Z,96909.34
2022-12-02T20:52:53.201Z,96915.97
2022-12-02T20:55:20.473Z,96914.44
2022-12-02T20:57:48.053Z,96910.38
2022-12-02T21:00:16.427Z,96915.50
2022-12-02T21:02:43.516Z,96918.31
2022-12-02T21:05:11.031Z,96917.28
2022-12-02T21:07:38.246Z,96921.84
2022-12-02T21:10:05.951Z,96917.28
2022-12-02T21:12:32.801Z,96926.47
2022-12-02T21:14:59.540Z,96923.41
2022-12-02T21:17:30.656Z,96926.25
2022-12-02T21:19:57.343Z,96922.94
2022-12-02T21:22:24.233Z,96931.34
2022-12-02T21:24:51.450Z,96932.13
2022-12-02T21:27:18.574Z,96928.81
2022-12-02T21:29:45.320Z,96933.66
2022-12-02T21:32:12.032Z,96931.88
2022-12-02T21:34:38.716Z,96942.88
2022-12-02T21:37:05.561Z,96941.84
2022-12-02T21:39:32.716Z,96936.50
2022-12-02T21:41:59.440Z,96935.97
2022-12-02T21:44:26.165Z,96940.31
2022-12-02T21:46:52.865Z,96952.63
2022-12-02T21:49:19.631Z,96942.88
2022-12-02T21:51:46.410Z,96941.84
2022-12-02T21:54:13.077Z,96945.44
2022-12-02T21:56:39.781Z,96941.09
2022-12-02T21:59:06.452Z,96945.44
2022-12-02T22:01:42.303Z,96943.66
2022-12-02T22:04:15.211Z,96950.56
2022-12-02T22:06:42.417Z,96955.41
2022-12-02T22:09:09.359Z,96956.44
2022-12-02T22:11:36.595Z,96956.44
2022-12-02T22:14:04.610Z,96954.63
2022-12-02T22:16:32.251Z,96958.22
2022-12-02T22:18:59.964Z,96964.88
2022-12-02T22:21:26.804Z,96957.19
2022-12-02T22:23:53.556Z,96957.97
2022-12-02T22:26:20.539Z,96948.75
2022-12-02T22:28:47.524Z,96958.72
2022-12-02T22:31:14.385Z,96963.59
2022-12-02T22:33:41.209Z,96966.66
2022-12-02T22:36:08.223Z,96971.00
2022-12-02T22:38:34.862Z,96967.69
2022-12-02T22:41:01.552Z,96964.09
2022-12-02T22:43:28.253Z,96962.81
2022-12-02T22:45:55.112Z,96967.91
2022-12-02T22:48:21.808Z,96966.66
2022-12-02T22:50:48.526Z,96968.13
2022-12-02T22:53:15.322Z,96970.69
2022-12-02T22:55:42.041Z,96968.13
2022-12-02T22:58:08.700Z,96963.81
2022-12-02T23:00:35.386Z,96963.03
2022-12-02T23:03:02.273Z,96959.72
2022-12-02T23:05:29.000Z,96958.72
2022-12-02T23:07:55.695Z,96963.03
2022-12-02T23:10:22.496Z,96963.81
2022-12-02T23:12:49.207Z,96958.72
2022-12-02T23:15:35.713Z,96962.03
2022-12-02T23:18:02.603Z,96962.25
2022-12-02T23:20:29.312Z,96966.38
2022-12-02T23:22:56.092Z,96965.59
2022-12-02T23:25:22.921Z,96962.03
2022-12-02T23:27:49.780Z,96964.31
2022-12-02T23:30:16.608Z,96968.69
2022-12-02T23:32:43.397Z,96971.22
2022-12-02T23:35:10.693Z,96960.47
2022-12-02T23:37:37.540Z,96955.38
2022-12-02T23:40:05.355Z,96961.75
2022-12-02T23:42:36.766Z,96962.25
2022-12-02T23:45:06.431Z,96955.38
2022-12-02T23:47:33.436Z,96955.34
2022-12-02T23:50:00.182Z,96942.56
2022-12-02T23:52:26.912Z,96949.75
2022-12-02T23:54:54.044Z,96940.50
2022-12-02T23:57:20.945Z,96940.78
2022-12-02T23:59:47.621Z,96939.75
